createdAt,value
2023-04-21T00:02:01.111Z,5.67
2023-04-21T00:04:29.748Z,5.70
2023-04-21T00:06:57.729Z,5.52
2023-04-21T00:09:25.739Z,5.42
2023-04-21T00:11:53.839Z,5.27
2023-04-21T00:14:21.786Z,5.37
2023-04-21T00:16:53.450Z,5.07
2023-04-21T00:19:21.939Z,5.06
2023-04-21T00:21:49.823Z,4.96
2023-04-21T00:24:17.866Z,5.09
2023-04-21T00:26:46.103Z,5.19
2023-04-21T00:29:13.995Z,5.30
2023-04-21T00:31:41.897Z,5.09
2023-04-21T00:34:10.208Z,5.03
2023-04-21T00:36:37.986Z,5.19
2023-04-21T00:39:05.867Z,5.23
2023-04-21T00:41:36.490Z,5.20
2023-04-21T00:44:09.437Z,5.01
2023-04-21T00:46:38.912Z,4.68
2023-04-21T00:49:08.184Z,4.79
2023-04-21T00:51:37.560Z,4.72
2023-04-21T00:54:07.948Z,4.74
2023-04-21T00:56:37.112Z,4.64
2023-04-21T00:59:05.514Z,4.52
2023-04-21T01:01:34.646Z,4.12
2023-04-21T01:04:04.796Z,4.12
2023-04-21T01:06:34.529Z,4.09
2023-04-21T01:09:07.754Z,4.05
2023-04-21T01:11:37.520Z,4.14
2023-04-21T01:14:08.913Z,4.47
2023-04-21T01:16:38.864Z,4.62
2023-04-21T01:19:06.903Z,4.48
2023-04-21T01:21:41.903Z,4.47
2023-04-21T01:24:10.447Z,4.53
2023-04-21T01:26:38.289Z,4.44
2023-04-21T01:29:06.299Z,5.12
2023-04-21T01:31:34.645Z,4.70
2023-04-21T01:34:05.725Z,4.95
2023-04-21T01:36:33.886Z,4.37
2023-04-21T01:39:02.211Z,4.42
2023-04-21T01:41:31.134Z,4.62
2023-04-21T01:43:59.126Z,4.22
2023-04-21T01:46:27.465Z,3.98
2023-04-21T01:48:55.511Z,4.13
2023-04-21T01:51:23.355Z,3.84
2023-04-21T01:53:51.650Z,3.93
2023-04-21T01:56:19.858Z,4.33
2023-04-21T01:58:47.749Z,4.12
2023-04-21T02:01:16.042Z,4.11
2023-04-21T02:03:44.552Z,3.91
2023-04-21T02:06:14.420Z,3.94
2023-04-21T02:08:42.341Z,4.47
2023-04-21T02:11:10.768Z,4.06
2023-04-21T02:13:41.098Z,4.01
2023-04-21T02:16:13.978Z,4.52
2023-04-21T02:18:44.885Z,4.59
2023-04-21T02:21:13.441Z,4.58
2023-04-21T02:23:41.361Z,4.03
2023-04-21T02:26:09.659Z,4.33
2023-04-21T02:28:37.911Z,4.51
2023-04-21T02:31:06.114Z,4.56
2023-04-21T02:33:34.988Z,4.32
2023-04-21T02:36:04.403Z,4.22
2023-04-21T02:38:32.272Z,4.35
2023-04-21T02:41:00.187Z,4.85
2023-04-21T02:43:28.530Z,4.86
2023-04-21T02:45:56.740Z,4.67
2023-04-21T02:48:24.966Z,5.04
2023-04-21T02:50:53.730Z,4.87
2023-04-21T02:53:21.675Z,5.23
2023-04-21T02:55:49.588Z,5.12
2023-04-21T02:58:17.809Z,5.14
2023-04-21T03:00:45.792Z,4.91
2023-04-21T03:03:15.680Z,5.01
2023-04-21T03:05:43.947Z,4.97
2023-04-21T03:08:11.796Z,5.00
2023-04-21T03:10:40.122Z,5.51
2023-04-21T03:13:08.322Z,4.64
2023-04-21T03:15:36.163Z,5.30
2023-04-21T03:18:04.104Z,5.47
2023-04-21T03:20:32.375Z,4.78
2023-04-21T03:23:00.261Z,5.06
2023-04-21T03:25:28.237Z,5.83
2023-04-21T03:27:56.754Z,5.34
2023-04-21T03:30:26.716Z,6.02
2023-04-21T03:32:56.060Z,5.42
2023-04-21T03:35:24.515Z,5.71
2023-04-21T03:37:52.628Z,5.89
2023-04-21T03:40:21.708Z,6.28
2023-04-21T03:42:49.912Z,6.32
2023-04-21T03:45:23.447Z,6.70
2023-04-21T03:47:56.152Z,6.71
2023-04-21T03:50:24.152Z,6.84
2023-04-21T03:52:52.387Z,6.63
2023-04-21T03:55:20.250Z,6.87
2023-04-21T03:57:48.082Z,7.40
2023-04-21T04:00:16.802Z,7.43
2023-04-21T04:02:46.602Z,7.50
2023-04-21T04:05:14.674Z,7.27
2023-04-21T04:07:42.682Z,7.58
2023-04-21T04:10:11.917Z,8.04
2023-04-21T04:12:40.024Z,8.26
2023-04-21T04:15:08.489Z,8.79
2023-04-21T04:17:36.926Z,8.62
2023-04-21T04:20:08.261Z,8.98
2023-04-21T04:22:36.486Z,8.99
2023-04-21T04:25:05.726Z,8.73
2023-04-21T04:27:33.694Z,9.08
2023-04-21T04:30:01.894Z,9.21
2023-04-21T04:32:33.854Z,9.44
2023-04-21T04:35:02.845Z,10.10
2023-04-21T04:37:34.835Z,10.75
2023-04-21T04:40:06.279Z,10.26
2023-04-21T04:42:37.147Z,10.16
2023-04-21T04:45:06.597Z,10.35
2023-04-21T04:47:38.099Z,10.13
2023-04-21T04:50:07.054Z,11.42
2023-04-21T04:52:34.849Z,9.96
2023-04-21T04:55:02.682Z,9.77
2023-04-21T04:57:32.368Z,11.00
2023-04-21T05:00:00.201Z,12.73
2023-04-21T05:02:28.347Z,12.75
2023-04-21T05:04:56.921Z,11.00
2023-04-21T05:07:24.779Z,12.62
2023-04-21T05:09:52.694Z,13.27
2023-04-21T05:12:21.021Z,13.60
2023-04-21T05:14:48.891Z,13.49
2023-04-21T05:17:16.765Z,14.06
2023-04-21T05:19:45.135Z,14.00
2023-04-21T05:22:12.968Z,14.39
2023-04-21T05:24:42.822Z,14.98
2023-04-21T05:27:11.170Z,12.65
2023-04-21T05:29:39.015Z,14.86
2023-04-21T05:32:07.062Z,15.79
2023-04-21T05:34:35.779Z,16.11
2023-04-21T05:37:03.641Z,15.39
2023-04-21T05:39:31.708Z,14.29
2023-04-21T05:41:59.984Z,14.18
2023-04-21T05:44:27.860Z,13.38
2023-04-21T05:46:56.264Z,14.82
2023-04-21T05:49:24.406Z,16.68
2023-04-21T05:51:52.226Z,15.54
2023-04-21T05:54:20.346Z,16.31
2023-04-21T05:56:48.878Z,16.74
2023-04-21T05:59:16.727Z,14.73
2023-04-21T06:01:44.925Z,13.81
2023-04-21T06:04:13.295Z,15.26
2023-04-21T06:06:41.263Z,13.97
2023-04-21T06:09:09.210Z,13.51
2023-04-21T06:11:37.563Z,15.18
2023-04-21T06:14:05.533Z,16.85
2023-04-21T06:16:34.610Z,14.72
2023-04-21T06:19:02.967Z,15.75
2023-04-21T06:21:31.299Z,16.29
2023-04-21T06:23:59.295Z,13.43
2023-04-21T06:26:27.518Z,16.43
2023-04-21T06:28:55.764Z,14.53
2023-04-21T06:31:23.757Z,14.63
2023-04-21T06:33:52.198Z,15.28
2023-04-21T06:36:22.170Z,15.72
2023-04-21T06:38:50.164Z,14.63
2023-04-21T06:41:18.507Z,16.49
2023-04-21T06:43:46.424Z,15.96
2023-04-21T06:46:14.762Z,15.18
2023-04-21T06:48:42.998Z,15.38
2023-04-21T06:51:10.963Z,16.45
2023-04-21T06:53:39.156Z,18.35
2023-04-21T06:56:07.620Z,16.48
2023-04-21T06:58:35.732Z,14.98
2023-04-21T07:01:03.700Z,17.30
2023-04-21T07:03:32.011Z,14.50
2023-04-21T07:06:00.004Z,14.52
2023-04-21T07:08:28.043Z,15.32
2023-04-21T07:10:56.257Z,17.38
2023-04-21T07:13:24.531Z,14.82
2023-04-21T07:15:55.365Z,16.12
2023-04-21T07:18:23.660Z,15.21
2023-04-21T07:20:51.630Z,16.45
2023-04-21T07:23:19.644Z,15.26
2023-04-21T07:25:47.966Z,16.27
2023-04-21T07:28:16.419Z,17.10
2023-04-21T07:30:44.092Z,19.20
2023-04-21T07:33:12.710Z,20.96
2023-04-21T07:35:40.666Z,17.23
2023-04-21T07:38:08.599Z,19.54
2023-04-21T07:40:36.872Z,15.26
2023-04-21T07:43:07.649Z,14.08
2023-04-21T07:45:35.641Z,17.14
2023-04-21T07:48:06.895Z,17.23
2023-04-21T07:50:37.874Z,16.19
2023-04-21T07:53:06.225Z,18.25
2023-04-21T07:55:34.722Z,18.67
2023-04-21T07:58:02.915Z,15.31
2023-04-21T08:00:31.680Z,17.03
2023-04-21T08:03:00.181Z,21.06
2023-04-21T08:05:32.103Z,16.49
2023-04-21T08:08:06.303Z,18.63
2023-04-21T08:10:35.952Z,20.81
2023-04-21T08:13:06.667Z,20.99
2023-04-21T08:15:35.297Z,21.02
2023-04-21T08:18:03.482Z,24.21
2023-04-21T08:20:31.961Z,23.75
2023-04-21T08:23:00.498Z,19.87
2023-04-21T08:25:28.793Z,18.21
2023-04-21T08:27:57.171Z,16.74
2023-04-21T08:30:28.412Z,16.25
2023-04-21T08:32:56.340Z,16.11
2023-04-21T08:35:25.476Z,17.15
2023-04-21T08:37:53.564Z,15.09
2023-04-21T08:40:21.771Z,16.25
2023-04-21T08:42:49.924Z,15.14
2023-04-21T08:45:17.847Z,17.07
2023-04-21T08:47:47.468Z,18.04
2023-04-21T08:50:16.387Z,18.71
2023-04-21T08:52:44.473Z,22.66
2023-04-21T08:55:13.882Z,23.09
2023-04-21T08:57:42.912Z,20.57
2023-04-21T09:00:11.256Z,25.29
2023-04-21T09:03:02.284Z,16.96
2023-04-21T09:05:33.701Z,16.25
2023-04-21T09:08:13.228Z,25.20
2023-04-21T09:10:46.780Z,22.55
2023-04-21T09:13:15.654Z,21.93
2023-04-21T09:15:47.217Z,20.32
2023-04-21T09:18:17.988Z,21.19
2023-04-21T09:20:48.930Z,19.30
2023-04-21T09:23:17.946Z,21.34
2023-04-21T09:25:46.537Z,21.03
2023-04-21T09:28:15.732Z,18.35
2023-04-21T09:30:44.102Z,18.25
2023-04-21T09:33:28.012Z,15.87
2023-04-21T09:36:21.522Z,17.08
2023-04-21T09:41:30.818Z,22.73
2023-04-21T09:44:05.773Z,22.86
2023-04-21T09:46:36.401Z,21.03
2023-04-21T09:49:05.680Z,20.89
2023-04-21T09:54:28.370Z,19.67
2023-04-21T09:57:04.771Z,19.85
2023-04-21T09:59:37.107Z,26.13
2023-04-21T10:02:13.547Z,28.40
2023-04-21T10:04:43.894Z,22.51
2023-04-21T10:07:13.042Z,20.06
2023-04-21T10:09:48.071Z,24.61
2023-04-21T10:12:18.231Z,26.30
2023-04-21T10:14:46.241Z,25.16
2023-04-21T10:17:17.824Z,25.63
2023-04-21T10:19:57.654Z,25.44
2023-04-21T10:22:35.744Z,22.74
2023-04-21T10:25:14.693Z,19.35
2023-04-21T10:27:43.667Z,16.87
2023-04-21T10:30:30.247Z,15.86
2023-04-21T10:33:07.491Z,16.45
2023-04-21T10:36:01.852Z,20.05
2023-04-21T10:38:44.068Z,26.72
2023-04-21T10:41:34.937Z,22.30
2023-04-21T10:44:14.626Z,28.42
2023-04-21T10:46:48.582Z,26.45
2023-04-21T10:49:30.870Z,21.26
2023-04-21T10:51:59.292Z,19.82
2023-04-21T10:54:28.860Z,23.70
2023-04-21T10:56:59.007Z,27.44
2023-04-21T10:59:27.650Z,24.56
2023-04-21T11:01:56.252Z,23.90
2023-04-21T11:04:24.866Z,25.62
2023-04-21T11:07:13.594Z,20.39
2023-04-21T11:09:43.024Z,19.87
2023-04-21T11:12:14.250Z,19.02
2023-04-21T11:14:44.100Z,20.64
2023-04-21T11:17:14.087Z,19.30
2023-04-21T11:19:42.869Z,20.46
2023-04-21T11:22:10.635Z,27.66
2023-04-21T11:24:44.640Z,23.99
2023-04-21T11:27:14.406Z,21.62
2023-04-21T11:29:43.339Z,18.36
2023-04-21T11:32:12.521Z,16.68
2023-04-21T11:34:40.851Z,16.49
2023-04-21T11:37:10.372Z,19.26
2023-04-21T11:39:41.844Z,18.49
2023-04-21T11:42:12.166Z,21.39
2023-04-21T11:44:43.765Z,18.94
2023-04-21T11:47:27.256Z,19.11
2023-04-21T11:49:57.066Z,18.86
2023-04-21T11:52:31.228Z,27.02
2023-04-21T11:55:20.242Z,25.47
2023-04-21T11:57:51.489Z,20.48
2023-04-21T12:00:20.454Z,19.80
2023-04-21T12:02:57.882Z,19.10
2023-04-21T12:05:26.318Z,21.08
2023-04-21T12:07:56.694Z,21.11
2023-04-21T12:10:24.868Z,20.81
2023-04-21T12:12:52.814Z,23.11
2023-04-21T12:15:23.462Z,20.92
2023-04-21T12:17:53.529Z,21.93
2023-04-21T12:20:26.813Z,21.64
2023-04-21T12:22:55.202Z,21.58
2023-04-21T12:25:23.640Z,21.19
2023-04-21T12:27:59.715Z,21.39
2023-04-21T12:30:28.116Z,21.38
2023-04-21T12:32:56.309Z,22.22
2023-04-21T12:35:27.989Z,23.24
2023-04-21T12:37:56.283Z,23.75
2023-04-21T12:40:24.009Z,24.57
2023-04-21T12:42:52.558Z,24.84
2023-04-21T12:45:20.848Z,25.13
2023-04-21T12:47:48.866Z,25.39
2023-04-21T12:50:16.752Z,24.66
2023-04-21T12:52:45.029Z,25.20
2023-04-21T12:55:13.885Z,25.87
2023-04-21T12:57:41.806Z,24.07
2023-04-21T13:00:12.659Z,22.59
2023-04-21T13:02:40.944Z,22.59
2023-04-21T13:05:10.550Z,23.96
2023-04-21T13:07:39.377Z,23.17
2023-04-21T13:10:08.336Z,24.37
2023-04-21T13:12:36.330Z,23.27
2023-04-21T13:15:05.393Z,24.50
2023-04-21T13:17:34.776Z,23.79
2023-04-21T13:20:05.134Z,24.69
2023-04-21T13:22:34.168Z,23.29
2023-04-21T13:25:02.251Z,23.41
2023-04-21T13:27:33.792Z,24.53
2023-04-21T13:30:02.289Z,25.33
2023-04-21T13:32:32.545Z,25.54
2023-04-21T13:35:00.585Z,25.36
2023-04-21T13:37:28.736Z,22.77
2023-04-21T13:39:56.842Z,24.17
2023-04-21T13:42:24.801Z,24.21
2023-04-21T13:44:53.375Z,23.15
2023-04-21T13:47:21.431Z,24.94
2023-04-21T13:49:50.461Z,26.15
2023-04-21T13:52:18.760Z,26.11
2023-04-21T13:54:47.399Z,26.08
2023-04-21T13:57:19.576Z,26.91
2023-04-21T13:59:48.536Z,27.79
2023-04-21T14:02:16.887Z,28.24
2023-04-21T14:04:47.909Z,28.26
2023-04-21T14:07:18.405Z,25.73
2023-04-21T14:09:52.020Z,24.67
2023-04-21T14:12:20.273Z,25.19
2023-04-21T14:14:49.049Z,23.87
2023-04-21T14:17:17.620Z,23.16
2023-04-21T14:19:46.037Z,22.53
2023-04-21T14:22:14.689Z,23.32
2023-04-21T14:24:42.875Z,23.83
2023-04-21T14:27:11.407Z,24.90
2023-04-21T14:29:39.985Z,24.33
2023-04-21T14:32:08.774Z,24.83
2023-04-21T14:34:37.206Z,24.98
2023-04-21T14:37:06.096Z,25.51
2023-04-21T14:39:35.046Z,23.57
2023-04-21T14:42:03.567Z,21.55
2023-04-21T14:44:32.088Z,20.14
2023-04-21T14:47:09.204Z,18.07
2023-04-21T14:49:39.693Z,17.45
2023-04-21T14:52:10.032Z,20.64
2023-04-21T14:54:39.289Z,22.48
2023-04-21T14:57:19.661Z,23.05
2023-04-21T14:59:52.910Z,23.74
2023-04-21T15:02:21.915Z,23.46
2023-04-21T15:04:50.974Z,23.95
2023-04-21T15:07:23.914Z,24.03
2023-04-21T15:09:53.744Z,24.89
2023-04-21T15:12:21.964Z,25.46
2023-04-21T15:14:50.318Z,24.86
2023-04-21T15:17:19.889Z,24.36
2023-04-21T15:19:47.965Z,22.34
2023-04-21T15:22:16.471Z,20.97
2023-04-21T15:24:44.853Z,22.34
2023-04-21T15:27:13.076Z,21.85
2023-04-21T15:29:41.503Z,20.90
2023-04-21T15:32:10.934Z,19.40
2023-04-21T15:34:38.910Z,18.41
2023-04-21T15:37:06.783Z,16.86
2023-04-21T15:39:35.820Z,17.07
2023-04-21T15:42:04.751Z,16.74
2023-04-21T15:44:34.555Z,15.48
2023-04-21T15:47:04.076Z,15.90
2023-04-21T15:49:33.118Z,15.54
2023-04-21T15:52:11.691Z,14.57
2023-04-21T15:54:40.426Z,14.94
2023-04-21T15:57:08.409Z,15.10
2023-04-21T15:59:36.829Z,14.99
2023-04-21T16:02:05.389Z,14.81
2023-04-21T16:04:33.972Z,14.56
2023-04-21T16:07:02.038Z,14.42
2023-04-21T16:09:30.071Z,13.99
2023-04-21T16:11:58.329Z,14.15
2023-04-21T16:14:29.047Z,13.89
2023-04-21T16:17:02.515Z,13.63
2023-04-21T16:19:31.183Z,13.41
2023-04-21T16:21:59.518Z,12.92
2023-04-21T16:24:28.252Z,12.64
2023-04-21T16:26:57.954Z,12.68
2023-04-21T16:29:26.133Z,12.53
2023-04-21T16:31:57.484Z,12.43
2023-04-21T16:34:26.343Z,12.54
2023-04-21T16:36:55.354Z,12.56
2023-04-21T16:39:23.970Z,12.47
2023-04-21T16:41:52.193Z,12.32
2023-04-21T16:44:21.004Z,12.34
2023-04-21T16:46:49.239Z,12.65
2023-04-21T16:49:17.420Z,12.36
2023-04-21T16:51:46.607Z,12.36
2023-04-21T16:54:14.856Z,12.13
2023-04-21T16:56:42.899Z,12.00
2023-04-21T16:59:11.489Z,11.79
2023-04-21T17:01:39.466Z,11.97
2023-04-21T17:04:07.942Z,11.74
2023-04-21T17:06:36.448Z,11.97
2023-04-21T17:09:04.577Z,12.00
2023-04-21T17:11:32.908Z,11.82
2023-04-21T17:14:01.464Z,12.81
2023-04-21T17:16:29.395Z,11.88
2023-04-21T17:18:57.395Z,12.05
2023-04-21T17:21:25.518Z,11.57
2023-04-21T17:23:53.266Z,11.66
2023-04-21T17:26:22.589Z,12.84
2023-04-21T17:28:51.355Z,12.27
2023-04-21T17:31:19.326Z,11.39
2023-04-21T17:33:47.330Z,11.25
2023-04-21T17:36:17.151Z,11.75
2023-04-21T17:38:44.902Z,11.14
2023-04-21T17:41:12.719Z,10.82
2023-04-21T17:43:41.019Z,10.89
2023-04-21T17:46:09.023Z,10.68
2023-04-21T17:48:38.562Z,10.86
2023-04-21T17:51:10.002Z,10.95
2023-04-21T17:53:37.988Z,11.04
2023-04-21T17:56:06.930Z,10.85
2023-04-21T17:58:35.850Z,10.84
2023-04-21T18:01:03.957Z,10.57
2023-04-21T18:03:33.150Z,10.44
2023-04-21T18:06:02.128Z,11.36
2023-04-21T18:08:30.156Z,10.57
2023-04-21T18:10:58.670Z,10.30
2023-04-21T18:13:26.770Z,10.32
2023-04-21T18:15:54.820Z,11.09
2023-04-21T18:18:23.165Z,10.61
2023-04-21T18:20:51.122Z,10.42
2023-04-21T18:23:19.347Z,10.56
2023-04-21T18:25:48.127Z,9.84
2023-04-21T18:28:16.040Z,9.69
2023-04-21T18:30:43.986Z,9.97
2023-04-21T18:33:12.492Z,9.67
2023-04-21T18:35:42.202Z,9.77
2023-04-21T18:38:12.131Z,9.66
2023-04-21T18:40:41.427Z,9.55
2023-04-21T18:43:11.007Z,9.60
2023-04-21T18:45:39.153Z,9.57
2023-04-21T18:48:08.041Z,9.45
2023-04-21T18:50:40.904Z,9.57
2023-04-21T18:53:09.700Z,9.52
2023-04-21T18:55:38.138Z,9.34
2023-04-21T18:58:06.881Z,9.68
2023-04-21T19:00:39.492Z,9.26
2023-04-21T19:03:08.547Z,9.38
2023-04-21T19:05:39.224Z,9.19
2023-04-21T19:08:11.003Z,9.35
2023-04-21T19:10:40.669Z,9.38
2023-04-21T19:13:08.745Z,9.64
2023-04-21T19:15:37.005Z,9.36
2023-04-21T19:18:05.610Z,9.21
2023-04-21T19:20:35.957Z,9.61
2023-04-21T19:23:04.306Z,8.96
2023-04-21T19:25:33.537Z,9.12
2023-04-21T19:28:02.202Z,9.33
2023-04-21T19:30:30.458Z,8.69
2023-04-21T19:32:58.762Z,8.83
2023-04-21T19:35:27.361Z,8.91
2023-04-21T19:37:55.804Z,8.93
2023-04-21T19:40:23.962Z,8.93
2023-04-21T19:42:51.934Z,8.75
2023-04-21T19:45:19.858Z,8.65
2023-04-21T19:47:48.090Z,9.07
2023-04-21T19:50:16.620Z,8.75
2023-04-21T19:52:46.181Z,8.46
2023-04-21T19:55:15.058Z,8.60
2023-04-21T19:57:42.835Z,8.49
2023-04-21T20:00:11.694Z,8.33
2023-04-21T20:02:41.133Z,8.17
2023-04-21T20:05:09.703Z,8.20
2023-04-21T20:07:38.146Z,8.11
2023-04-21T20:10:07.669Z,8.05
2023-04-21T20:12:36.058Z,8.12
2023-04-21T20:15:03.977Z,8.07
2023-04-21T20:17:33.424Z,8.07
2023-04-21T20:20:01.789Z,8.18
2023-04-21T20:22:32.875Z,8.22
2023-04-21T20:25:01.882Z,8.15
2023-04-21T20:27:31.573Z,8.38
2023-04-21T20:29:59.864Z,7.98
2023-04-21T20:32:28.194Z,8.16
2023-04-21T20:34:56.581Z,8.10
2023-04-21T20:37:24.769Z,8.02
2023-04-21T20:39:53.035Z,7.77
2023-04-21T20:42:22.308Z,8.07
2023-04-21T20:44:50.416Z,8.02
2023-04-21T20:47:18.612Z,8.03
2023-04-21T20:49:47.763Z,7.85
2023-04-21T20:52:16.290Z,7.88
2023-04-21T20:54:44.598Z,7.70
2023-04-21T20:57:12.741Z,7.61
2023-04-21T20:59:40.621Z,7.56
2023-04-21T21:02:09.456Z,7.43
2023-04-21T21:04:37.454Z,7.62
2023-04-21T21:07:05.552Z,7.94
2023-04-21T21:09:33.982Z,7.57
2023-04-21T21:12:02.672Z,7.46
2023-04-21T21:14:31.015Z,7.44
2023-04-21T21:16:59.439Z,7.63
2023-04-21T21:19:27.568Z,7.49
2023-04-21T21:21:55.493Z,7.67
2023-04-21T21:24:25.236Z,7.36
2023-04-21T21:26:53.223Z,7.52
2023-04-21T21:29:21.168Z,7.24
2023-04-21T21:31:49.725Z,7.18
2023-04-21T21:34:17.510Z,7.40
2023-04-21T21:36:45.674Z,7.19
2023-04-21T21:39:14.124Z,6.90
2023-04-21T21:41:41.987Z,7.08
2023-04-21T21:44:10.743Z,7.07
2023-04-21T21:46:39.140Z,6.79
2023-04-21T21:49:07.153Z,6.94
2023-04-21T21:51:34.914Z,7.03
2023-04-21T21:54:03.145Z,7.01
2023-04-21T21:56:30.999Z,6.60
2023-04-21T22:01:45.631Z,6.67
2023-04-21T22:04:14.104Z,6.85
2023-04-21T22:06:42.749Z,6.69
2023-04-21T22:09:10.655Z,6.54
2023-04-21T22:11:38.839Z,6.62
2023-04-21T22:14:21.203Z,6.47
2023-04-21T22:16:53.436Z,6.26
2023-04-21T22:19:21.502Z,6.40
2023-04-21T22:21:49.388Z,6.64
2023-04-21T22:24:18.143Z,6.61
2023-04-21T22:26:46.420Z,6.52
2023-04-21T22:29:14.342Z,6.49
2023-04-21T22:31:42.615Z,6.33
2023-04-21T22:34:10.652Z,6.50
2023-04-21T22:36:38.500Z,6.24
2023-04-21T22:39:07.480Z,5.99
2023-04-21T22:41:35.369Z,6.25
2023-04-21T22:44:03.235Z,6.58
2023-04-21T22:46:33.949Z,6.10
2023-04-21T22:49:03.499Z,6.00
2023-04-21T22:51:32.869Z,6.07
2023-04-21T22:54:00.994Z,6.09
2023-04-21T22:56:30.433Z,6.10
2023-04-21T22:58:58.847Z,5.95
2023-04-21T23:01:26.700Z,5.90
2023-04-21T23:03:54.665Z,5.91
2023-04-21T23:06:22.851Z,5.53
2023-04-21T23:08:50.795Z,5.73
2023-04-21T23:11:19.658Z,6.01
2023-04-21T23:13:48.031Z,5.98
2023-04-21T23:16:15.978Z,6.00
2023-04-21T23:18:43.895Z,5.90
2023-04-21T23:21:12.218Z,5.62
2023-04-21T23:23:40.109Z,5.87
2023-04-21T23:26:07.855Z,5.96
2023-04-21T23:28:36.132Z,5.94
2023-04-21T23:31:04.050Z,5.60
2023-04-21T23:33:32.044Z,5.42
2023-04-21T23:36:00.435Z,5.64
2023-04-21T23:38:28.244Z,5.76
2023-04-21T23:40:56.187Z,5.49
2023-04-21T23:43:24.526Z,5.61
2023-04-21T23:45:52.291Z,5.86
2023-04-21T23:48:20.192Z,5.63
2023-04-21T23:50:49.073Z,5.60
2023-04-21T23:53:17.005Z,5.60
2023-04-21T23:55:46.391Z,5.25
2023-04-21T23:58:14.729Z,5.29
